Wolf Creek Observed Data For Previous 48 Hours

Caption
Day and Hour Reservoir Elevation (behind dam)* Tailwater Elevation (below dam)* Average Hourly Discharge*
11/17/2017 1 AM CST 705.32 548.52 3,730
11/17/2017 2 AM CST 705.32 546.42 20
11/17/2017 3 AM CST 705.32 544.32 20
11/17/2017 4 AM CST 705.32 543.82 20
11/17/2017 5 AM CST 705.30 548.20 20
11/17/2017 6 AM CST 705.28 551.18 7,440
11/17/2017 7 AM CST 705.28 551.18 11,480
11/17/2017 8 AM CST 705.25 552.35 11,570
11/17/2017 9 AM CST 705.23 552.63 11,570
11/17/2017 10 AM CST 705.22 552.82 11,690
11/17/2017 11 AM CST 705.20 551.60 11,690
11/17/2017 12 PM CST 705.19 551.29 7,660
11/17/2017 1 PM CST 705.18 551.18 7,660
11/17/2017 2 PM CST 705.18 551.18 7,660
11/17/2017 3 PM CST 705.14 550.94 7,660
11/17/2017 4 PM CST 705.12 550.92 7,660
11/17/2017 5 PM CST 705.10 550.90 7,660
11/17/2017 6 PM CST 705.08 550.88 7,660
11/17/2017 7 PM CST 705.08 550.88 7,660
11/17/2017 8 PM CST 705.07 554.67 11,900
11/17/2017 9 PM CST 705.06 554.96 11,900
11/17/2017 10 PM CST 705.05 547.65 3,800
11/17/2017 11 PM CST 705.05 545.65 20
11/18/2017 12 AM CST 705.05 544.95 20
11/18/2017 1 AM CST 705.05 544.95 20
11/18/2017 2 AM CST 705.06 544.11 20
11/18/2017 3 AM CST 705.06 543.26 20
11/18/2017 4 AM CST 705.07 542.97 20
11/18/2017 5 AM CST 705.07 542.57 20
11/18/2017 6 AM CST 705.06 545.86 3,870
11/18/2017 7 AM CST 705.06 545.86 3,870
11/18/2017 8 AM CST 705.06 546.46 3,640
11/18/2017 9 AM CST 705.04 548.74 7,520
11/18/2017 10 AM CST 705.02 549.92 7,580
11/18/2017 11 AM CST 705.02 550.12 7,580
11/18/2017 12 PM CST 705.00 548.60 3,730
11/18/2017 1 PM CST 705.00 548.60 3,730
11/18/2017 2 PM CST - 999.00 - 999.00 -999
11/18/2017 3 PM CST 705.00 551.70 11,570
11/18/2017 4 PM CST 705.00 552.50 11,570
11/18/2017 5 PM CST 704.98 552.78 11,690
11/18/2017 6 PM CST 704.98 552.98 11,690
11/18/2017 7 PM CST 704.98 552.98 11,690
11/18/2017 8 PM CST 704.94 551.84 7,720
11/18/2017 9 PM CST 704.92 549.62 3,800
11/18/2017 10 PM CST 704.91 547.31 20
11/18/2017 11 PM CST 704.91 545.11 20
11/19/2017 12 AM CST 704.91 544.81 20
11/19/2017 1 AM CST 704.91 544.81 20

Elevations are in feet above sea level. Discharges are in cubic feet per second and are reported at the end of the hour.